Time;durP1;ratioP1;P1;durP2;ratioP2;P2;SDS_P1;SDS_P2;PMS_P1;PMS_P2;Temp;Humidity;BMP_temperature;BMP_pressure;BME280_temperature;BME280_humidity;BME280_pressure;Samples;Min_cycle;Max_cycle;Signal;HPM_P1;HPM_P2
2022/11/15 00:00:32;;;;;;;;;;;19.80;64.70;;;;;;5050809;28;19921;-62
2022/11/15 00:02:58;;;;;;;;;;;19.80;65.30;;;;;;5052281;28;19924;-62
2022/11/15 00:05:23;;;;;;;;;;;19.80;64.70;;;;;;5051693;28;19952;-62
2022/11/15 00:07:49;;;;;;;;;;;19.80;64.60;;;;;;5051589;28;19936;-62
2022/11/15 00:10:14;;;;;;;;;;;19.80;64.70;;;;;;5053484;28;19932;-62
2022/11/15 00:12:40;;;;;;;;;;;19.80;64.60;;;;;;5055705;28;19920;-62
2022/11/15 00:15:06;;;;;;;;;;;19.80;64.70;;;;;;5054243;28;19932;-62
2022/11/15 00:17:31;;;;;;;;;;;19.80;64.70;;;;;;5055159;28;19948;-62
2022/11/15 00:19:57;;;;;;;;;;;19.70;64.60;;;;;;5055169;28;19921;-61
2022/11/15 00:22:22;;;;;;;;;;;19.70;64.60;;;;;;5054479;28;20384;-62
2022/11/15 00:24:48;;;;;;;;;;;19.70;64.60;;;;;;5055237;28;20311;-62
2022/11/15 00:27:13;;;;;;;;;;;19.70;64.50;;;;;;5054978;28;20019;-62
2022/11/15 00:29:42;;;;;;;;;;;19.70;64.50;;;;;;5054460;28;19925;-62
2022/11/15 00:32:11;;;;;;;;;;;19.70;64.60;;;;;;5055341;28;20387;-61
2022/11/15 00:34:37;;;;;;;;;;;19.70;64.60;;;;;;5055471;28;19924;-62
2022/11/15 00:37:02;;;;;;;;;;;19.70;64.50;;;;;;5053916;28;20038;-62
2022/11/15 00:39:27;;;;;;;;;;;19.70;64.50;;;;;;5054828;28;19928;-62
2022/11/15 00:41:53;;;;;;;;;;;19.70;64.50;;;;;;5055173;28;19932;-62
2022/11/15 00:44:18;;;;;;;;;;;19.60;64.50;;;;;;5054115;28;20006;-61
2022/11/15 00:46:44;;;;;;;;;;;19.70;64.50;;;;;;5055303;28;19925;-61
2022/11/15 00:49:09;;;;;;;;;;;19.60;64.50;;;;;;5054871;28;20322;-62
2022/11/15 00:51:35;;;;;;;;;;;19.60;64.50;;;;;;5053748;28;19936;-61
2022/11/15 00:54:00;;;;;;;;;;;19.60;64.50;;;;;;5055141;28;19924;-62
2022/11/15 00:56:26;;;;;;;;;;;19.60;64.50;;;;;;5053817;28;19937;-62
2022/11/15 00:58:52;;;;;;;;;;;19.60;64.50;;;;;;5054712;28;19932;-62
2022/11/15 01:01:17;;;;;;;;;;;19.60;64.50;;;;;;5053958;28;20384;-62
2022/11/15 01:03:43;;;;;;;;;;;19.60;64.40;;;;;;5054041;28;19929;-61
2022/11/15 01:06:08;;;;;;;;;;;19.60;64.40;;;;;;5054479;28;19931;-61
2022/11/15 01:08:34;;;;;;;;;;;19.60;64.40;;;;;;5054638;28;19924;-62
2022/11/15 01:11:03;;;;;;;;;;;19.60;64.50;;;;;;5052990;28;19925;-62
2022/11/15 01:13:32;;;;;;;;;;;19.60;64.40;;;;;;5054405;28;19932;-61
2022/11/15 01:15:57;;;;;;;;;;;19.60;64.40;;;;;;5054740;28;20011;-62
2022/11/15 01:18:23;;;;;;;;;;;19.50;64.40;;;;;;5053345;28;20003;-61
2022/11/15 01:20:48;;;;;;;;;;;19.50;64.40;;;;;;5053469;28;19925;-62
2022/11/15 01:23:14;;;;;;;;;;;19.50;64.40;;;;;;5053955;28;20365;-62
2022/11/15 01:25:39;;;;;;;;;;;19.50;64.40;;;;;;5053368;28;19928;-62
2022/11/15 01:28:05;;;;;;;;;;;19.50;64.40;;;;;;5054105;28;19929;-61
2022/11/15 01:30:30;;;;;;;;;;;19.50;64.40;;;;;;5054148;28;19924;-62
2022/11/15 01:32:56;;;;;;;;;;;19.50;64.30;;;;;;5053648;28;19931;-62
2022/11/15 01:35:21;;;;;;;;;;;19.50;64.30;;;;;;5053782;28;20031;-61
2022/11/15 01:37:47;;;;;;;;;;;19.50;64.40;;;;;;5053990;28;20323;-62
2022/11/15 01:40:12;;;;;;;;;;;19.50;64.30;;;;;;5053162;28;19925;-62
2022/11/15 01:42:38;;;;;;;;;;;19.50;64.30;;;;;;5053956;28;19931;-61
2022/11/15 01:45:03;;;;;;;;;;;19.50;64.30;;;;;;5053706;28;19925;-62
2022/11/15 01:47:30;;;;;;;;;;;19.50;64.30;;;;;;5052356;28;19924;-62
2022/11/15 01:49:56;;;;;;;;;;;19.50;64.30;;;;;;5054002;28;19944;-61
2022/11/15 01:52:22;;;;;;;;;;;19.50;64.30;;;;;;5053376;28;19924;-62
2022/11/15 01:54:48;;;;;;;;;;;19.40;64.30;;;;;;5052873;28;20012;-62
2022/11/15 01:57:14;;;;;;;;;;;19.40;64.20;;;;;;5035706;28;20008;-61
2022/11/15 01:59:40;;;;;;;;;;;19.40;64.20;;;;;;5053827;28;19998;-61
2022/11/15 02:02:05;;;;;;;;;;;19.40;64.20;;;;;;5052808;28;19931;-61
2022/11/15 02:04:31;;;;;;;;;;;19.40;64.20;;;;;;5053109;28;19925;-62
2022/11/15 02:06:57;;;;;;;;;;;19.40;64.20;;;;;;5052508;28;20276;-62
2022/11/15 02:09:22;;;;;;;;;;;19.40;64.20;;;;;;5035476;28;19939;-62
2022/11/15 02:11:48;;;;;;;;;;;19.40;64.20;;;;;;5053632;28;20008;-61
2022/11/15 02:14:14;;;;;;;;;;;19.40;64.10;;;;;;5034599;28;20380;-62
2022/11/15 02:16:55;;;;;;;;;;;19.40;64.10;;;;;;5035809;28;20019;-61
2022/11/15 02:19:32;;;;;;;;;;;19.40;64.20;;;;;;5035363;28;19971;-61
2022/11/15 02:22:10;;;;;;;;;;;19.40;64.10;;;;;;5052363;28;19925;-61
2022/11/15 02:24:48;;;;;;;;;;;19.40;64.10;;;;;;5053313;28;20007;-61
2022/11/15 02:27:19;;;;;;;;;;;19.40;64.20;;;;;;5067912;28;19925;-61
2022/11/15 02:29:57;;;;;;;;;;;19.40;64.10;;;;;;5067863;28;19932;-61
2022/11/15 02:32:42;;;;;;;;;;;19.40;64.10;;;;;;5052501;28;19932;-61
2022/11/15 02:35:12;;;;;;;;;;;19.40;64.10;;;;;;5034505;28;19925;-61
2022/11/15 02:37:53;;;;;;;;;;;19.40;64.10;;;;;;5068489;28;19932;-61
2022/11/15 02:40:34;;;;;;;;;;;19.40;64.10;;;;;;5052607;28;19925;-61
2022/11/15 02:45:48;;;;;;;;;;;19.30;64.00;;;;;;5053243;28;20402;-62
2022/11/15 02:48:13;;;;;;;;;;;19.30;64.00;;;;;;5068084;28;19982;-63
2022/11/15 02:50:39;;;;;;;;;;;19.30;64.00;;;;;;5051973;28;19924;-63
2022/11/15 02:53:04;;;;;;;;;;;19.30;64.00;;;;;;5052722;28;20011;-62
2022/11/15 02:55:33;;;;;;;;;;;19.30;64.00;;;;;;5052586;28;19931;-63
2022/11/15 02:58:05;;;;;;;;;;;19.30;64.00;;;;;;5051963;28;19921;-62
2022/11/15 03:00:39;;;;;;;;;;;19.30;63.90;;;;;;5049446;28;20438;-62
2022/11/15 03:03:24;;;;;;;;;;;19.30;63.90;;;;;;5030301;28;20015;-63
2022/11/15 03:05:53;;;;;;;;;;;19.30;64.00;;;;;;5031876;28;20008;-62
2022/11/15 03:08:19;;;;;;;;;;;19.30;64.00;;;;;;5031016;28;19947;-62
2022/11/15 03:11:03;;;;;;;;;;;19.30;64.00;;;;;;5032119;28;20388;-62
2022/11/15 03:13:47;;;;;;;;;;;19.30;64.00;;;;;;5032547;28;19929;-62
2022/11/15 03:16:15;;;;;;;;;;;19.20;63.90;;;;;;5032136;28;19972;-62
2022/11/15 03:18:41;;;;;;;;;;;19.20;63.90;;;;;;5031799;28;19969;-61
2022/11/15 03:21:08;;;;;;;;;;;19.20;63.90;;;;;;5032206;28;19925;-62
2022/11/15 03:23:33;;;;;;;;;;;19.20;63.90;;;;;;5031297;28;20008;-62
2022/11/15 03:25:59;;;;;;;;;;;19.20;63.90;;;;;;5030502;28;19980;-62
2022/11/15 03:28:30;;;;;;;;;;;19.20;63.90;;;;;;5032343;28;19964;-62
2022/11/15 03:30:55;;;;;;;;;;;19.20;63.90;;;;;;5031525;28;20010;-62
2022/11/15 03:33:20;;;;;;;;;;;19.20;63.90;;;;;;5030275;28;20393;-62
2022/11/15 03:35:46;;;;;;;;;;;19.20;63.90;;;;;;5032199;28;19928;-62
2022/11/15 03:38:27;;;;;;;;;;;19.20;63.90;;;;;;5029865;28;20021;-62
2022/11/15 03:40:59;;;;;;;;;;;19.20;63.90;;;;;;5031508;28;19932;-62
2022/11/15 03:43:28;;;;;;;;;;;19.20;63.90;;;;;;5047457;28;19932;-62
2022/11/15 03:45:55;;;;;;;;;;;19.20;63.90;;;;;;5036151;28;19971;-62
2022/11/15 03:48:24;;;;;;;;;;;19.20;63.90;;;;;;5071441;28;19925;-62
2022/11/15 03:50:49;;;;;;;;;;;19.20;64.00;;;;;;5056113;28;19925;-62
2022/11/15 03:53:15;;;;;;;;;;;19.20;64.00;;;;;;5054867;28;19927;-62
2022/11/15 03:55:40;;;;;;;;;;;19.20;64.00;;;;;;5038369;28;20287;-62
2022/11/15 03:58:06;;;;;;;;;;;19.20;64.00;;;;;;5056167;28;19956;-62
2022/11/15 04:00:31;;;;;;;;;;;19.20;64.00;;;;;;5054747;28;20011;-62
2022/11/15 04:02:57;;;;;;;;;;;19.20;64.00;;;;;;5055805;28;19932;-62
2022/11/15 04:05:22;;;;;;;;;;;19.20;63.90;;;;;;5055762;28;19920;-62
2022/11/15 04:07:48;;;;;;;;;;;19.20;63.90;;;;;;5055002;28;19925;-62
2022/11/15 04:10:13;;;;;;;;;;;19.20;63.90;;;;;;5055346;28;19977;-62
2022/11/15 04:12:42;;;;;;;;;;;19.20;63.90;;;;;;5055791;28;19925;-62
2022/11/15 04:15:08;;;;;;;;;;;19.20;63.80;;;;;;5054463;28;19967;-62
2022/11/15 04:17:34;;;;;;;;;;;19.20;63.90;;;;;;5055478;28;19924;-62
2022/11/15 04:25:35;;;;;;;;;;;19.30;63.90;;;;;;5024301;28;20325;-62
2022/11/15 04:28:00;;;;;;;;;;;19.30;63.90;;;;;;5054778;28;19925;-62
2022/11/15 04:30:26;;;;;;;;;;;19.30;63.80;;;;;;5037348;28;19929;-62
2022/11/15 04:32:51;;;;;;;;;;;19.30;63.90;;;;;;5055443;28;20322;-62
2022/11/15 04:35:16;;;;;;;;;;;19.30;63.90;;;;;;5054463;28;19925;-62
2022/11/15 04:37:42;;;;;;;;;;;19.30;63.80;;;;;;5054957;28;20329;-62
2022/11/15 04:40:07;;;;;;;;;;;19.40;63.80;;;;;;5054651;28;19921;-61
2022/11/15 04:42:33;;;;;;;;;;;19.40;63.80;;;;;;5054038;28;19925;-62
2022/11/15 04:44:58;;;;;;;;;;;19.40;63.80;;;;;;5055311;28;19925;-62
2022/11/15 04:47:24;;;;;;;;;;;19.40;63.80;;;;;;5054913;28;19920;-61
2022/11/15 04:49:49;;;;;;;;;;;19.40;63.80;;;;;;5054454;28;20376;-62
2022/11/15 04:52:15;;;;;;;;;;;19.40;63.80;;;;;;5054258;28;19924;-62
2022/11/15 04:54:41;;;;;;;;;;;19.40;63.80;;;;;;5054897;28;19925;-62
2022/11/15 04:57:07;;;;;;;;;;;19.50;63.80;;;;;;5054326;28;19925;-62
2022/11/15 04:59:33;;;;;;;;;;;19.40;63.70;;;;;;5054467;28;19971;-62
2022/11/15 05:01:58;;;;;;;;;;;19.50;63.80;;;;;;5051780;28;19925;-62
2022/11/15 05:04:24;;;;;;;;;;;19.50;63.80;;;;;;5047928;28;19925;-61
2022/11/15 05:06:49;;;;;;;;;;;19.50;63.70;;;;;;5072266;28;20354;-62
2022/11/15 05:09:15;;;;;;;;;;;19.50;63.70;;;;;;5072785;28;20019;-62
2022/11/15 05:11:41;;;;;;;;;;;19.60;63.80;;;;;;5055531;28;19976;-62
2022/11/15 05:14:06;;;;;;;;;;;19.60;63.70;;;;;;5074854;28;20035;-62
2022/11/15 05:16:32;;;;;;;;;;;19.60;63.70;;;;;;5073871;28;19932;-62
2022/11/15 05:18:57;;;;;;;;;;;19.60;63.70;;;;;;5073726;28;20367;-62
2022/11/15 05:21:23;;;;;;;;;;;19.60;63.70;;;;;;5074089;28;20054;-62
2022/11/15 05:23:48;;;;;;;;;;;19.60;63.70;;;;;;5073638;28;20399;-63
2022/11/15 05:26:14;;;;;;;;;;;19.60;63.70;;;;;;5063379;28;19929;-62
2022/11/15 05:28:40;;;;;;;;;;;19.60;63.70;;;;;;5054423;28;19928;-62
2022/11/15 05:31:06;;;;;;;;;;;19.60;63.70;;;;;;5053776;28;20007;-62
2022/11/15 05:33:32;;;;;;;;;;;19.60;63.70;;;;;;5053893;28;19925;-62
2022/11/15 05:35:59;;;;;;;;;;;19.70;63.70;;;;;;5053877;28;19931;-62
2022/11/15 05:38:24;;;;;;;;;;;19.70;63.70;;;;;;5053319;28;19925;-63
2022/11/15 05:40:50;;;;;;;;;;;19.70;63.70;;;;;;5069719;28;19924;-62
2022/11/15 05:43:15;;;;;;;;;;;19.70;63.60;;;;;;5053847;28;20368;-63
2022/11/15 05:45:41;;;;;;;;;;;19.70;63.70;;;;;;5053411;28;19925;-62
2022/11/15 05:48:06;;;;;;;;;;;19.70;63.70;;;;;;5053810;28;19929;-62
2022/11/15 05:50:32;;;;;;;;;;;19.70;63.70;;;;;;5069214;28;19925;-62
2022/11/15 05:52:57;;;;;;;;;;;19.70;63.60;;;;;;5052981;28;19925;-62
2022/11/15 05:55:23;;;;;;;;;;;19.70;63.60;;;;;;5053715;28;19928;-62
2022/11/15 05:57:48;;;;;;;;;;;19.70;63.60;;;;;;5053783;28;19978;-62
2022/11/15 06:00:14;;;;;;;;;;;19.70;63.60;;;;;;5052710;28;20391;-62
2022/11/15 06:02:39;;;;;;;;;;;19.80;63.70;;;;;;5053645;28;20018;-62
2022/11/15 06:05:05;;;;;;;;;;;19.80;63.70;;;;;;5053477;28;19924;-62
2022/11/15 06:07:30;;;;;;;;;;;19.80;63.70;;;;;;5052016;28;20398;-62
2022/11/15 06:09:56;;;;;;;;;;;19.80;63.70;;;;;;5053562;28;19936;-62
2022/11/15 06:12:21;;;;;;;;;;;19.80;63.70;;;;;;5053149;28;19931;-62
2022/11/15 06:14:47;;;;;;;;;;;19.80;63.70;;;;;;5052738;28;19987;-62
2022/11/15 06:17:12;;;;;;;;;;;19.80;63.70;;;;;;5035333;28;19931;-62
2022/11/15 06:19:38;;;;;;;;;;;19.80;63.70;;;;;;5053382;28;20002;-62
2022/11/15 06:22:03;;;;;;;;;;;19.80;63.70;;;;;;5052689;28;19924;-62
2022/11/15 06:24:29;;;;;;;;;;;19.80;63.70;;;;;;5052949;28;19929;-63
2022/11/15 06:26:54;;;;;;;;;;;19.80;63.70;;;;;;5053496;28;20008;-61
2022/11/15 06:29:19;;;;;;;;;;;19.80;63.70;;;;;;5067557;28;19924;-62
2022/11/15 06:31:45;;;;;;;;;;;19.80;63.70;;;;;;5053204;28;19924;-61
2022/11/15 06:34:10;;;;;;;;;;;19.80;63.70;;;;;;5052099;28;19955;-62
2022/11/15 06:36:36;;;;;;;;;;;19.80;63.70;;;;;;5052999;28;20379;-63
2022/11/15 06:39:04;;;;;;;;;;;19.90;63.80;;;;;;5053220;28;19925;-61
2022/11/15 06:41:30;;;;;;;;;;;19.90;63.80;;;;;;5052181;28;19978;-61
2022/11/15 06:43:56;;;;;;;;;;;19.80;63.80;;;;;;5052946;28;20386;-61
2022/11/15 06:46:21;;;;;;;;;;;19.90;63.70;;;;;;5052930;28;19925;-62
2022/11/15 06:48:49;;;;;;;;;;;19.90;63.80;;;;;;5051971;28;19932;-62
2022/11/15 06:51:14;;;;;;;;;;;19.90;63.80;;;;;;5052733;28;19972;-62
2022/11/15 06:53:40;;;;;;;;;;;19.90;63.90;;;;;;5053021;28;20017;-62
2022/11/15 06:56:05;;;;;;;;;;;19.90;64.00;;;;;;5052186;28;19928;-62
2022/11/15 06:58:31;;;;;;;;;;;19.90;64.00;;;;;;5052212;28;19929;-62
2022/11/15 07:01:04;;;;;;;;;;;19.90;64.00;;;;;;5052719;28;20016;-61
2022/11/15 07:03:29;;;;;;;;;;;19.90;64.10;;;;;;5051629;28;19929;-62
2022/11/15 07:05:55;;;;;;;;;;;19.90;64.10;;;;;;5052598;28;19979;-62
2022/11/15 07:08:21;;;;;;;;;;;19.90;64.10;;;;;;5051985;28;19938;-63
2022/11/15 07:10:46;;;;;;;;;;;19.90;64.20;;;;;;5061437;28;19924;-61
2022/11/15 07:13:12;;;;;;;;;;;19.90;64.40;;;;;;5063062;28;19927;-61
2022/11/15 07:15:37;;;;;;;;;;;19.90;64.40;;;;;;5061364;28;19925;-64
2022/11/15 07:18:02;;;;;;;;;;;19.90;64.40;;;;;;5068563;28;19928;-63
2022/11/15 07:20:28;;;;;;;;;;;20.00;64.60;;;;;;5074800;28;19925;-63
2022/11/15 07:23:03;;;;;;;;;;;20.00;64.60;;;;;;5076908;28;19964;-62
2022/11/15 07:25:28;;;;;;;;;;;20.00;64.70;;;;;;5075180;28;19928;-62
2022/11/15 07:27:55;;;;;;;;;;;20.00;64.70;;;;;;5076480;28;19932;-61
2022/11/15 07:30:20;;;;;;;;;;;19.90;64.70;;;;;;5075336;28;20284;-62
2022/11/15 07:32:46;;;;;;;;;;;20.00;64.80;;;;;;5076749;28;20381;-62
2022/11/15 07:35:11;;;;;;;;;;;20.00;64.80;;;;;;5076475;28;19931;-63
2022/11/15 07:37:37;;;;;;;;;;;20.00;64.80;;;;;;5075489;28;19925;-62
2022/11/15 07:40:03;;;;;;;;;;;20.00;64.90;;;;;;5076285;28;19924;-62
2022/11/15 07:45:14;;;;;;;;;;;20.00;65.00;;;;;;5075190;28;20283;-62
2022/11/15 07:47:40;;;;;;;;;;;20.00;65.00;;;;;;5076392;28;19925;-62
2022/11/15 07:50:05;;;;;;;;;;;20.10;65.10;;;;;;5076530;28;19924;-63
2022/11/15 07:52:31;;;;;;;;;;;20.10;65.10;;;;;;5074870;28;19928;-62
2022/11/15 07:54:56;;;;;;;;;;;20.10;65.10;;;;;;5076051;28;20371;-62
2022/11/15 07:57:22;;;;;;;;;;;20.10;65.10;;;;;;5075022;28;19931;-62
2022/11/15 07:59:47;;;;;;;;;;;20.10;65.10;;;;;;5074931;28;19935;-62
2022/11/15 08:02:13;;;;;;;;;;;20.10;65.10;;;;;;5075709;28;20039;-62
2022/11/15 08:04:38;;;;;;;;;;;20.10;65.20;;;;;;5076321;28;19924;-63
2022/11/15 08:07:04;;;;;;;;;;;20.10;65.20;;;;;;5075045;28;20303;-62
2022/11/15 08:09:29;;;;;;;;;;;20.10;65.10;;;;;;5075543;28;19929;-63
2022/11/15 08:11:55;;;;;;;;;;;20.10;65.20;;;;;;5075665;28;20388;-63
2022/11/15 08:14:21;;;;;;;;;;;20.10;65.20;;;;;;5074432;28;19925;-63
2022/11/15 08:16:47;;;;;;;;;;;20.10;65.20;;;;;;5075658;28;19928;-62
2022/11/15 08:19:12;;;;;;;;;;;20.10;65.20;;;;;;5075369;28;20011;-63
2022/11/15 08:21:38;;;;;;;;;;;20.10;65.30;;;;;;5074778;28;19931;-63
2022/11/15 08:24:03;;;;;;;;;;;20.10;65.30;;;;;;5075320;28;19946;-62
2022/11/15 08:26:29;;;;;;;;;;;20.10;65.40;;;;;;5075250;28;19928;-63
2022/11/15 08:28:55;;;;;;;;;;;20.10;65.40;;;;;;5074466;28;20358;-62
2022/11/15 08:31:20;;;;;;;;;;;20.10;65.50;;;;;;5074212;28;20349;-62
2022/11/15 08:33:46;;;;;;;;;;;20.10;65.50;;;;;;5054658;28;20011;-61
2022/11/15 08:36:15;;;;;;;;;;;20.10;65.50;;;;;;5053859;28;20378;-63
2022/11/15 08:38:40;;;;;;;;;;;20.10;65.50;;;;;;5054286;28;20375;-63
2022/11/15 08:41:06;;;;;;;;;;;20.10;65.40;;;;;;5053536;28;20388;-63
2022/11/15 08:43:32;;;;;;;;;;;20.10;65.40;;;;;;5054956;28;19968;-63
2022/11/15 08:45:57;;;;;;;;;;;20.10;65.50;;;;;;5055479;28;19936;-63
2022/11/15 08:48:22;;;;;;;;;;;20.10;65.50;;;;;;5054386;28;19925;-63
2022/11/15 08:50:48;;;;;;;;;;;20.10;65.40;;;;;;5055400;28;19925;-62
2022/11/15 08:53:13;;;;;;;;;;;20.10;65.40;;;;;;5058010;28;20376;-62
2022/11/15 08:55:39;;;;;;;;;;;20.10;65.40;;;;;;5071029;28;19979;-62
2022/11/15 08:58:05;;;;;;;;;;;20.10;65.40;;;;;;5067398;28;19924;-62
2022/11/15 09:00:30;;;;;;;;;;;20.10;65.50;;;;;;5065096;28;20344;-62
2022/11/15 09:02:56;;;;;;;;;;;20.00;65.40;;;;;;5066738;28;19963;-62
2022/11/15 09:05:21;;;;;;;;;;;20.10;65.50;;;;;;5074584;28;19928;-62
2022/11/15 09:07:47;;;;;;;;;;;20.10;65.40;;;;;;5070407;28;19947;-63
2022/11/15 09:10:12;;;;;;;;;;;20.10;65.40;;;;;;5058719;28;19982;-62
2022/11/15 09:12:38;;;;;;;;;;;20.00;65.40;;;;;;5070542;28;20413;-62
2022/11/15 09:15:04;;;;;;;;;;;20.10;65.60;;;;;;5058208;28;20334;-62
2022/11/15 09:17:29;;;;;;;;;;;20.10;65.70;;;;;;5066710;28;19959;-62
2022/11/15 09:19:55;;;;;;;;;;;20.10;65.70;;;;;;5053593;28;19968;-62
2022/11/15 09:22:20;;;;;;;;;;;20.00;65.70;;;;;;5053578;28;19932;-62
2022/11/15 09:24:46;;;;;;;;;;;20.10;65.80;;;;;;5053176;28;20008;-63
2022/11/15 09:27:13;;;;;;;;;;;20.10;65.80;;;;;;5053295;28;19932;-63
2022/11/15 09:29:38;;;;;;;;;;;20.00;65.80;;;;;;5053634;28;19925;-62
2022/11/15 09:32:04;;;;;;;;;;;20.10;65.80;;;;;;5058109;28;19947;-62
2022/11/15 09:34:29;;;;;;;;;;;20.10;66.00;;;;;;5062291;28;20399;-62
2022/11/15 09:36:55;;;;;;;;;;;20.00;65.80;;;;;;5052104;28;19951;-63
2022/11/15 09:39:20;;;;;;;;;;;20.10;65.90;;;;;;5053281;28;20372;-62
2022/11/15 09:41:56;;;;;;;;;;;20.00;65.90;;;;;;5052888;28;20015;-62
2022/11/15 09:44:25;;;;;;;;;;;20.00;66.00;;;;;;5068111;28;19925;-63
2022/11/15 09:47:05;;;;;;;;;;;20.10;66.00;;;;;;5053903;28;19925;-63
2022/11/15 09:49:30;;;;;;;;;;;20.10;66.10;;;;;;5068904;28;19932;-63
2022/11/15 09:51:56;;;;;;;;;;;20.00;66.00;;;;;;5052824;28;20276;-63
2022/11/15 09:54:30;;;;;;;;;;;20.00;66.00;;;;;;5053114;28;19929;-63
2022/11/15 09:56:57;;;;;;;;;;;20.10;66.10;;;;;;5053824;28;20276;-63
2022/11/15 09:59:31;;;;;;;;;;;20.00;66.00;;;;;;5067967;28;19972;-63
2022/11/15 10:02:00;;;;;;;;;;;20.00;66.00;;;;;;5053765;28;19928;-63
2022/11/15 10:04:26;;;;;;;;;;;20.00;66.10;;;;;;5053193;28;20013;-63
2022/11/15 10:06:54;;;;;;;;;;;20.00;66.10;;;;;;5067855;28;19998;-63
2022/11/15 10:09:22;;;;;;;;;;;20.00;66.10;;;;;;5068321;28;19925;-63
2022/11/15 10:11:47;;;;;;;;;;;20.00;66.20;;;;;;5053277;28;19929;-63
2022/11/15 10:14:16;;;;;;;;;;;20.00;66.20;;;;;;5052254;28;19928;-62
2022/11/15 10:17:01;;;;;;;;;;;20.00;66.10;;;;;;5053470;28;20013;-63
2022/11/15 10:19:29;;;;;;;;;;;20.00;66.20;;;;;;5052034;28;20280;-63
2022/11/15 10:22:00;;;;;;;;;;;20.00;66.30;;;;;;5053332;28;19925;-62
2022/11/15 10:24:28;;;;;;;;;;;19.90;66.30;;;;;;5052660;28;19925;-63
2022/11/15 10:26:54;;;;;;;;;;;19.90;66.20;;;;;;5052120;28;20411;-62
2022/11/15 10:29:23;;;;;;;;;;;20.00;66.30;;;;;;5053655;28;19929;-62
2022/11/15 10:31:50;;;;;;;;;;;20.00;66.10;;;;;;5051468;28;21329;-62
2022/11/15 10:34:18;;;;;;;;;;;20.00;66.20;;;;;;5051979;28;20439;-71
2022/11/15 10:36:44;;;;;;;;;;;20.00;66.20;;;;;;5054455;28;19924;-63
2022/11/15 10:39:11;;;;;;;;;;;20.00;66.10;;;;;;5053234;28;19925;-63
2022/11/15 10:41:38;;;;;;;;;;;20.00;66.30;;;;;;5052409;28;20058;-62
2022/11/15 10:44:06;;;;;;;;;;;20.00;67.00;;;;;;5053301;28;19957;-63
2022/11/15 10:46:32;;;;;;;;;;;20.00;66.40;;;;;;5035175;28;19932;-64
2022/11/15 10:49:14;;;;;;;;;;;20.00;66.40;;;;;;5052525;28;20372;-64
2022/11/15 10:51:41;;;;;;;;;;;20.00;66.50;;;;;;5053220;28;20002;-63
2022/11/15 10:54:06;;;;;;;;;;;20.00;66.50;;;;;;5052987;28;19966;-63
2022/11/15 10:56:32;;;;;;;;;;;20.00;66.40;;;;;;5051973;28;19925;-64
2022/11/15 10:58:57;;;;;;;;;;;20.00;66.20;;;;;;5068721;28;20360;-63
2022/11/15 11:01:24;;;;;;;;;;;20.00;66.20;;;;;;5067277;28;19925;-64
2022/11/15 11:04:00;;;;;;;;;;;20.00;66.30;;;;;;5068391;28;19924;-63
2022/11/15 11:06:25;;;;;;;;;;;20.00;66.30;;;;;;5052381;28;20330;-63
2022/11/15 11:08:54;;;;;;;;;;;20.00;66.30;;;;;;5067419;28;19928;-64
2022/11/15 11:11:19;;;;;;;;;;;20.00;66.30;;;;;;5052761;28;19924;-64
2022/11/15 11:13:45;;;;;;;;;;;20.00;66.20;;;;;;5053076;28;19925;-63
2022/11/15 11:16:13;;;;;;;;;;;20.00;66.30;;;;;;5054889;28;19925;-62
2022/11/15 11:18:39;;;;;;;;;;;20.00;66.10;;;;;;5062312;28;19932;-62
2022/11/15 11:21:08;;;;;;;;;;;20.00;66.20;;;;;;5062203;28;19924;-63
2022/11/15 11:23:36;;;;;;;;;;;20.00;66.30;;;;;;5041868;28;19936;-63
2022/11/15 11:26:11;;;;;;;;;;;20.00;66.90;;;;;;5043538;28;19936;-63
2022/11/15 11:28:42;;;;;;;;;;;20.00;66.40;;;;;;5061168;28;20299;-63
2022/11/15 11:31:22;;;;;;;;;;;20.00;66.50;;;;;;5081809;28;19924;-62
2022/11/15 11:34:07;;;;;;;;;;;20.00;66.40;;;;;;5088392;28;20451;-63
2022/11/15 11:36:51;;;;;;;;;;;20.00;66.50;;;;;;5071405;28;20387;-63
2022/11/15 11:39:21;;;;;;;;;;;20.10;66.40;;;;;;5072456;28;20380;-63
2022/11/15 11:41:49;;;;;;;;;;;20.00;66.30;;;;;;5088253;28;19924;-63
2022/11/15 11:44:15;;;;;;;;;;;20.10;66.40;;;;;;5087235;28;19924;-62
2022/11/15 11:46:40;;;;;;;;;;;20.10;66.40;;;;;;5072537;28;20302;-63
2022/11/15 11:49:10;;;;;;;;;;;20.10;66.30;;;;;;5072689;28;19978;-63
2022/11/15 11:51:39;;;;;;;;;;;20.10;66.30;;;;;;5071873;28;20019;-63
2022/11/15 11:54:06;;;;;;;;;;;20.10;66.30;;;;;;5088287;28;19924;-63
2022/11/15 11:56:32;;;;;;;;;;;20.10;66.30;;;;;;5087804;28;19927;-62
2022/11/15 11:59:03;;;;;;;;;;;20.00;66.30;;;;;;5053888;28;19928;-62
2022/11/15 12:01:30;;;;;;;;;;;20.10;67.00;;;;;;5088061;28;19929;-63
2022/11/15 12:03:56;;;;;;;;;;;20.00;66.30;;;;;;5071943;28;19924;-62
2022/11/15 12:06:31;;;;;;;;;;;20.00;66.20;;;;;;5073479;28;19925;-62
2022/11/15 12:09:02;;;;;;;;;;;20.00;66.30;;;;;;5076305;28;19924;-63
2022/11/15 12:11:27;;;;;;;;;;;20.10;66.30;;;;;;5091475;28;19929;-63
2022/11/15 12:13:55;;;;;;;;;;;20.00;66.30;;;;;;5069070;28;20356;-63
2022/11/15 12:16:25;;;;;;;;;;;20.00;66.30;;;;;;5065407;28;19924;-64
2022/11/15 12:18:52;;;;;;;;;;;20.10;66.40;;;;;;5054611;28;19966;-64
2022/11/15 12:21:20;;;;;;;;;;;20.10;66.40;;;;;;5055115;28;19928;-64
2022/11/15 12:23:48;;;;;;;;;;;20.10;66.50;;;;;;5060639;28;19952;-64
2022/11/15 12:26:17;;;;;;;;;;;20.10;66.50;;;;;;5063439;28;19971;-62
2022/11/15 12:28:57;;;;;;;;;;;20.10;66.60;;;;;;5074591;28;20340;-63
2022/11/15 12:31:28;;;;;;;;;;;20.10;66.60;;;;;;5054867;28;19974;-63
2022/11/15 12:33:55;;;;;;;;;;;20.10;66.70;;;;;;5054430;28;19932;-63
2022/11/15 12:36:20;;;;;;;;;;;20.20;66.70;;;;;;5070014;28;19928;-63
2022/11/15 12:38:54;;;;;;;;;;;20.20;66.70;;;;;;5054626;28;20461;-63
2022/11/15 12:41:20;;;;;;;;;;;20.20;66.60;;;;;;5053770;28;20304;-63
2022/11/15 12:43:46;;;;;;;;;;;20.20;66.80;;;;;;5055216;28;20376;-63
2022/11/15 12:46:21;;;;;;;;;;;20.20;66.80;;;;;;5054890;28;19932;-63
2022/11/15 12:48:51;;;;;;;;;;;20.30;66.80;;;;;;5054261;28;20360;-63
2022/11/15 12:51:17;;;;;;;;;;;20.20;66.80;;;;;;5054219;28;19932;-63
2022/11/15 12:53:42;;;;;;;;;;;20.30;66.80;;;;;;5070573;28;19921;-63
2022/11/15 12:56:17;;;;;;;;;;;20.30;66.80;;;;;;5054316;28;20039;-63
2022/11/15 12:58:42;;;;;;;;;;;20.30;66.80;;;;;;5054979;28;19921;-62
2022/11/15 13:01:08;;;;;;;;;;;20.30;66.80;;;;;;5054003;28;20284;-63
2022/11/15 13:03:34;;;;;;;;;;;20.30;66.70;;;;;;5054776;28;19956;-63
2022/11/15 13:06:00;;;;;;;;;;;20.40;66.80;;;;;;5054569;28;19932;-62
2022/11/15 13:08:34;;;;;;;;;;;20.40;66.80;;;;;;5059184;28;20272;-63
2022/11/15 13:11:18;;;;;;;;;;;20.40;66.80;;;;;;5063173;28;19924;-63
2022/11/15 13:13:44;;;;;;;;;;;20.40;66.80;;;;;;5076378;28;20059;-65
2022/11/15 13:16:10;;;;;;;;;;;20.40;66.80;;;;;;5052547;28;20011;-61
2022/11/15 13:18:36;;;;;;;;;;;20.40;66.90;;;;;;5089358;28;20279;-60
2022/11/15 13:22:50;;;;;;;;;;;20.50;66.90;;;;;;5074557;28;19925;-61
2022/11/15 13:23:51;;;;;;;;;;;20.50;66.70;;;;;;5073432;28;19928;-63
2022/11/15 13:26:17;;;;;;;;;;;20.50;66.50;;;;;;5074058;28;19931;-60
2022/11/15 13:28:44;;;;;;;;;;;20.50;66.70;;;;;;5073998;28;20007;-60
2022/11/15 13:31:21;;;;;;;;;;;20.50;66.60;;;;;;5073326;28;20019;-59
2022/11/15 13:33:47;;;;;;;;;;;20.60;66.70;;;;;;5074199;28;20013;-61
2022/11/15 13:36:13;;;;;;;;;;;20.60;66.60;;;;;;5073248;28;19982;-60
2022/11/15 13:38:39;;;;;;;;;;;20.60;66.70;;;;;;5089783;28;19931;-60
2022/11/15 13:41:17;;;;;;;;;;;20.60;66.60;;;;;;5073927;28;19925;-59
2022/11/15 13:43:43;;;;;;;;;;;20.60;66.60;;;;;;5073415;28;19932;-60
2022/11/15 13:46:12;;;;;;;;;;;20.60;66.70;;;;;;5073492;28;20391;-60
2022/11/15 13:48:37;;;;;;;;;;;20.60;66.70;;;;;;5073997;28;19993;-60
2022/11/15 13:51:04;;;;;;;;;;;20.70;66.70;;;;;;5073341;28;20011;-60
2022/11/15 13:53:31;;;;;;;;;;;20.70;66.70;;;;;;5073132;28;20244;-62
2022/11/15 13:55:56;;;;;;;;;;;20.70;66.70;;;;;;5073685;28;19954;-63
2022/11/15 13:58:22;;;;;;;;;;;20.70;67.50;;;;;;5072817;28;19928;-62
2022/11/15 14:00:47;;;;;;;;;;;20.80;67.20;;;;;;5073833;28;19928;-61
2022/11/15 14:03:24;;;;;;;;;;;20.80;67.20;;;;;;5073220;28;19925;-60
2022/11/15 14:06:03;;;;;;;;;;;20.80;67.30;;;;;;5072848;28;19925;-61
2022/11/15 14:08:29;;;;;;;;;;;20.80;67.20;;;;;;5088649;28;19929;-62
2022/11/15 14:11:06;;;;;;;;;;;20.90;67.50;;;;;;5073596;28;19925;-61
2022/11/15 14:13:31;;;;;;;;;;;20.90;67.20;;;;;;5072226;28;19963;-61
2022/11/15 14:16:17;;;;;;;;;;;21.00;67.30;;;;;;5073272;28;20454;-61
2022/11/15 14:18:43;;;;;;;;;;;21.00;67.50;;;;;;5088368;28;19924;-62
2022/11/15 14:21:09;;;;;;;;;;;21.00;67.30;;;;;;5073188;28;19933;-62
2022/11/15 14:23:34;;;;;;;;;;;21.00;67.10;;;;;;5072900;28;19924;-62
2022/11/15 14:26:00;;;;;;;;;;;21.00;66.80;;;;;;5072122;28;20015;-63
2022/11/15 14:28:25;;;;;;;;;;;21.00;66.90;;;;;;5072534;28;19924;-63